Time;durP1;ratioP1;P1;durP2;ratioP2;P2;SDS_P1;SDS_P2;PMS_P1;PMS_P2;Temp;Humidity;BMP_temperature;BMP_pressure;BME280_temperature;BME280_humidity;BME280_pressure;Samples;Min_cycle;Max_cycle;Signal;HPM_P1;HPM_P2
2022/09/28 00:02:11;;;;;;;;;1.50;1.50;;;;;9.34;80.23;97830.09;5033555;28;8825;-60
2022/09/28 00:04:40;;;;;;;;;1.00;1.00;;;;;9.33;79.98;97820.47;5033417;28;9502;-60
2022/09/28 00:07:08;;;;;;;;;2.50;2.50;;;;;9.34;79.92;97822.13;5033661;28;8820;-60
2022/09/28 00:09:37;;;;;;;;;3.00;3.00;;;;;9.32;79.76;97816.97;5033765;28;8833;-60
2022/09/28 00:12:05;;;;;;;;;3.00;2.00;;;;;9.33;79.98;97818.63;5033573;28;8941;-60
2022/09/28 00:14:33;;;;;;;;;4.00;3.75;;;;;9.34;80.37;97817.63;5033198;28;8937;-60
2022/09/28 00:17:00;;;;;;;;;3.00;3.00;;;;;9.33;80.09;97808.00;5032263;28;8913;-60
2022/09/28 00:19:28;;;;;;;;;3.00;3.00;;;;;9.33;80.61;97808.00;5033628;28;8825;-60
2022/09/28 00:21:56;;;;;;;;;3.00;1.00;;;;;9.32;80.00;97803.69;5032702;28;8860;-60
2022/09/28 00:24:23;;;;;;;;;3.00;3.00;;;;;9.33;80.25;97805.34;5033120;28;8901;-61
2022/09/28 00:26:54;;;;;;;;;3.25;3.00;;;;;9.31;80.10;97804.69;5032625;28;8829;-60
2022/09/28 00:29:22;;;;;;;;;3.25;3.25;;;;;9.32;80.64;97801.03;5032982;28;8884;-61
2022/09/28 00:31:51;;;;;;;;;2.50;2.50;;;;;9.32;79.91;97801.03;5033248;28;8849;-60
2022/09/28 00:34:18;;;;;;;;;3.00;2.00;;;;;9.32;80.06;97805.50;5033111;28;8820;-60
2022/09/28 00:36:46;;;;;;;;;3.00;3.00;;;;;9.31;80.23;97802.03;5032187;28;8902;-61
2022/09/28 00:39:14;;;;;;;;;2.00;1.00;;;;;9.31;80.37;97802.03;5032397;28;8805;-61
2022/09/28 00:41:42;;;;;;;;;3.00;3.00;;;;;9.30;79.93;97797.72;5032456;28;8853;-60
2022/09/28 00:44:10;;;;;;;;;2.50;1.00;;;;;9.31;80.26;97795.88;5033073;28;8825;-62
2022/09/28 00:46:37;;;;;;;;;1.00;1.00;;;;;9.30;80.25;97787.09;5032650;28;8851;-60
2022/09/28 00:49:06;;;;;;;;;3.00;3.00;;;;;9.32;80.16;97794.88;5032499;28;8845;-61
2022/09/28 00:51:33;;;;;;;;;3.00;3.00;;;;;9.31;80.44;97791.41;5032377;28;9475;-61
2022/09/28 00:54:01;;;;;;;;;1.00;1.00;;;;;9.32;80.53;97792.22;5032484;28;8845;-60
2022/09/28 00:56:29;;;;;;;;;3.00;3.00;;;;;9.32;80.39;97800.19;5032727;28;8841;-60
2022/09/28 00:58:57;;;;;;;;;2.00;1.00;;;;;9.31;80.05;97794.06;5031553;28;8809;-61
2022/09/28 01:01:25;;;;;;;;;3.50;3.50;;;;;9.31;80.14;97786.09;5032009;28;8929;-60
2022/09/28 01:03:53;;;;;;;;;2.50;2.50;;;;;9.31;80.17;97791.41;5032235;28;8851;-61
2022/09/28 01:06:21;;;;;;;;;2.50;1.00;;;;;9.31;79.93;97786.09;5031944;28;8894;-61
2022/09/28 01:08:49;;;;;;;;;2.50;2.50;;;;;9.32;79.66;97787.75;5031952;28;8898;-60
2022/09/28 01:11:17;;;;;;;;;3.00;2.50;;;;;9.31;80.23;97791.41;5031884;28;8898;-60
2022/09/28 01:13:44;;;;;;;;;1.00;1.00;;;;;9.32;79.97;97782.44;5031837;28;8833;-60
2022/09/28 01:16:12;;;;;;;;;1.50;1.00;;;;;9.31;79.88;97783.44;5031820;28;8833;-60
2022/09/28 01:18:40;;;;;;;;;1.00;0.50;;;;;9.31;80.04;97786.09;5032582;28;8944;-61
2022/09/28 01:21:08;;;;;;;;;3.00;3.00;;;;;9.30;80.07;97789.75;5032941;28;8909;-60
2022/09/28 01:23:35;;;;;;;;;3.50;2.50;;;;;9.30;80.59;97787.09;5032965;28;8869;-62
2022/09/28 01:26:03;;;;;;;;;2.50;2.50;;;;;9.28;80.12;97789.06;5032745;28;8824;-60
2022/09/28 01:28:30;;;;;;;;;2.50;1.00;;;;;9.28;80.29;97782.94;5032388;28;8821;-61
2022/09/28 01:30:59;;;;;;;;;3.25;3.25;;;;;9.27;80.21;97783.94;5032707;28;8821;-60
2022/09/28 01:33:27;;;;;;;;;3.00;3.00;;;;;9.26;80.35;97788.41;5032543;28;9610;-60
2022/09/28 01:35:55;;;;;;;;;0.25;0.00;;;;;9.25;80.28;97783.25;5032582;28;8840;-60
2022/09/28 01:38:23;;;;;;;;;3.00;3.00;;;;;9.25;80.08;97786.75;5032541;28;8825;-62
2022/09/28 01:40:50;;;;;;;;;1.50;1.00;;;;;9.25;80.08;97784.09;5032517;28;8857;-62
2022/09/28 01:43:18;;;;;;;;;3.25;3.25;;;;;9.26;80.12;97776.97;5032467;28;8905;-60
2022/09/28 01:45:46;;;;;;;;;3.50;3.25;;;;;9.25;80.37;97777.94;5032307;28;8832;-60
2022/09/28 01:48:14;;;;;;;;;0.75;0.75;;;;;9.24;79.62;97779.78;5032352;28;8926;-61
2022/09/28 01:50:41;;;;;;;;;4.00;4.00;;;;;9.24;80.61;97782.44;5031789;28;8901;-60
2022/09/28 01:53:09;;;;;;;;;2.50;2.50;;;;;9.24;80.03;97779.78;5032429;28;8829;-62
2022/09/28 01:55:37;;;;;;;;;3.50;3.25;;;;;9.23;79.92;97777.28;5032783;28;9681;-62
2022/09/28 01:58:05;;;;;;;;;5.00;3.00;;;;;9.22;79.87;97779.13;5032428;28;8930;-62
2022/09/28 02:00:33;;;;;;;;;2.50;2.50;;;;;9.21;79.80;97774.81;5032011;28;8837;-61
2022/09/28 02:03:00;;;;;;;;;1.50;1.50;;;;;9.21;79.99;97777.47;5032220;28;8825;-61
2022/09/28 02:05:28;;;;;;;;;3.50;3.00;;;;;9.17;80.19;97770.81;5031894;28;8817;-60
2022/09/28 02:07:56;;;;;;;;;3.25;3.25;;;;;9.14;80.74;97773.81;5032361;28;8901;-59
2022/09/28 02:10:24;;;;;;;;;2.50;1.00;;;;;9.10;80.69;97777.78;5032371;28;8849;-61
2022/09/28 02:12:52;;;;;;;;;0.75;0.75;;;;;9.08;80.73;97776.28;5032560;28;8860;-62
2022/09/28 02:15:20;;;;;;;;;2.00;1.00;;;;;9.05;80.69;97776.63;5031207;28;8825;-62
2022/09/28 02:17:47;;;;;;;;;4.00;3.00;;;;;9.04;80.42;97788.25;5031802;28;8817;-60
2022/09/28 02:20:15;;;;;;;;;2.00;2.00;;;;;9.04;80.41;97781.09;5032156;28;8902;-61
2022/09/28 02:22:43;;;;;;;;;2.00;1.00;;;;;9.04;80.53;97775.78;5032117;28;8845;-62
2022/09/28 02:25:10;;;;;;;;;0.75;0.75;;;;;9.04;80.53;97777.63;5031690;28;8913;-60
2022/09/28 02:27:38;;;;;;;;;0.00;0.00;;;;;9.04;80.14;97777.63;5031593;28;8817;-61
2022/09/28 02:30:06;;;;;;;;;3.00;3.00;;;;;9.03;80.41;97774.13;5031739;28;8860;-60
2022/09/28 02:32:34;;;;;;;;;2.50;1.50;;;;;9.03;80.51;97773.31;5031771;28;8813;-60
2022/09/28 02:35:02;;;;;;;;;0.25;0.25;;;;;9.02;80.75;97777.78;5031581;28;8821;-61
2022/09/28 02:37:30;;;;;;;;;3.00;1.00;;;;;9.03;80.72;97773.31;5031576;28;8870;-62
2022/09/28 02:39:57;;;;;;;;;3.50;3.50;;;;;9.02;80.65;97776.94;5031951;28;8825;-61
2022/09/28 02:42:25;;;;;;;;;4.50;4.00;;;;;9.02;80.39;97784.91;5035192;28;8821;-60
2022/09/28 02:44:52;;;;;;;;;3.25;3.25;;;;;9.02;80.25;97777.78;5035636;28;8938;-62
2022/09/28 02:47:21;;;;;;;;;3.00;2.00;;;;;9.03;80.36;97786.59;5035128;28;8861;-60
2022/09/28 02:49:48;;;;;;;;;1.50;0.50;;;;;9.02;80.56;97772.47;5035055;28;8821;-61
2022/09/28 02:52:16;;;;;;;;;3.25;3.25;;;;;9.02;80.08;97777.78;5035346;28;8833;-61
2022/09/28 02:54:44;;;;;;;;;4.00;3.75;;;;;9.02;80.25;97793.72;5034918;28;8820;-62
2022/09/28 02:57:11;;;;;;;;;4.00;3.50;;;;;9.02;80.13;97777.78;5034773;28;9502;-61
2022/09/28 02:59:39;;;;;;;;;3.50;3.00;;;;;9.02;80.27;97784.91;5035466;28;8817;-62
2022/09/28 03:02:07;;;;;;;;;5.00;3.75;;;;;9.01;80.25;97773.47;5035254;28;8832;-62
2022/09/28 03:04:35;;;;;;;;;6.00;3.25;;;;;9.01;80.35;97776.13;5035339;28;8820;-60
2022/09/28 03:07:02;;;;;;;;;2.50;2.50;;;;;9.01;79.80;97777.94;5034887;28;8821;-60
2022/09/28 03:09:30;;;;;;;;;5.00;4.00;;;;;9.01;80.62;97780.59;5035018;28;8853;-61
2022/09/28 03:11:57;;;;;;;;;2.50;1.50;;;;;9.01;80.31;97789.41;5035164;28;8829;-60
2022/09/28 03:14:25;;;;;;;;;1.50;1.50;;;;;9.00;80.77;97786.91;5035275;28;8837;-59
2022/09/28 03:16:53;;;;;;;;;1.00;1.00;;;;;8.97;80.40;97790.72;5034828;28;8910;-60
2022/09/28 03:19:20;;;;;;;;;6.75;5.50;;;;;8.97;80.27;97795.22;5035065;28;8832;-61
2022/09/28 03:21:50;;;;;;;;;8.50;7.50;;;;;8.95;80.70;97798.03;5035136;28;8844;-60
2022/09/28 03:24:18;;;;;;;;;6.00;4.00;;;;;8.95;80.29;97800.69;5035176;28;9553;-60
2022/09/28 03:26:45;;;;;;;;;6.75;3.75;;;;;8.96;80.59;97791.72;5034513;28;8810;-60
2022/09/28 03:29:13;;;;;;;;;6.25;6.00;;;;;8.98;80.58;97795.03;5034671;28;8905;-60
2022/09/28 03:31:43;;;;;;;;;6.00;5.50;;;;;8.98;80.56;97796.88;5034520;28;8825;-60
2022/09/28 03:34:10;;;;;;;;;6.75;6.75;;;;;9.00;80.52;97801.03;5034599;28;8821;-60
2022/09/28 03:36:38;;;;;;;;;4.50;4.00;;;;;9.01;80.28;97791.22;5033690;28;8817;-60
2022/09/28 03:39:06;;;;;;;;;6.00;5.50;;;;;9.02;80.35;97792.88;5034679;28;8833;-60
2022/09/28 03:41:33;;;;;;;;;3.75;3.75;;;;;9.03;80.13;97787.41;5034645;28;8845;-60
2022/09/28 03:44:01;;;;;;;;;6.00;5.25;;;;;9.04;80.50;97791.72;5034935;28;9486;-60
2022/09/28 03:46:28;;;;;;;;;8.50;6.00;;;;;9.05;80.31;97792.56;5034113;28;8817;-60
2022/09/28 03:48:57;;;;;;;;;6.00;5.50;;;;;9.06;80.00;97794.22;5034486;28;8817;-62
2022/09/28 03:51:24;;;;;;;;;7.00;6.75;;;;;9.06;80.13;97784.44;5033859;28;8821;-60
2022/09/28 03:53:52;;;;;;;;;6.00;6.00;;;;;9.07;80.48;97785.25;5033714;28;8849;-60
2022/09/28 03:56:19;;;;;;;;;7.00;7.00;;;;;9.06;80.38;97784.44;5033923;28;8816;-60
2022/09/28 03:58:47;;;;;;;;;9.00;8.50;;;;;9.06;80.34;97783.59;5034118;28;8905;-60
2022/09/28 04:01:15;;;;;;;;;12.50;11.00;;;;;9.07;80.16;97785.25;5034041;28;8851;-60
2022/09/28 04:03:44;;;;;;;;;9.50;8.50;;;;;9.06;80.15;97783.59;5033881;28;9556;-60
2022/09/28 04:06:12;;;;;;;;;10.25;8.75;;;;;9.06;79.92;97783.59;5033622;28;8833;-61
2022/09/28 04:08:41;;;;;;;;;7.75;6.50;;;;;9.07;80.56;97779.94;5033640;28;8821;-60
2022/09/28 04:11:09;;;;;;;;;11.50;11.00;;;;;9.08;80.36;97789.56;5033778;28;8857;-62
2022/09/28 04:13:37;;;;;;;;;11.50;10.00;;;;;9.07;80.12;97783.44;5034174;28;8853;-61
2022/09/28 04:16:05;;;;;;;;;7.75;7.75;;;;;9.06;79.83;97787.09;5033614;28;8878;-61
2022/09/28 04:18:34;;;;;;;;;12.00;9.25;;;;;9.05;80.30;97788.06;5033814;28;9651;-62
2022/09/28 04:21:05;;;;;;;;;8.75;8.50;;;;;9.05;80.03;97785.41;5033430;28;8896;-62
2022/09/28 04:23:33;;;;;;;;;6.75;6.25;;;;;9.06;80.21;97784.44;5033572;28;8851;-61
2022/09/28 04:26:01;;;;;;;;;12.00;11.25;;;;;9.06;80.29;97787.09;5033197;28;8824;-62
2022/09/28 04:31:14;;;;;;;;;13.50;12.00;;;;;9.06;80.37;97794.22;5033186;28;8909;-63
2022/09/28 04:33:42;;;;;;;;;11.00;10.00;;;;;9.05;80.05;97796.03;5033093;28;8930;-62
2022/09/28 04:36:10;;;;;;;;;10.00;9.00;;;;;9.05;80.31;97792.56;5033146;28;8829;-62
2022/09/28 04:38:38;;;;;;;;;10.00;9.50;;;;;9.04;80.51;97796.22;5033050;28;8857;-62
2022/09/28 04:41:21;;;;;;;;;12.50;12.25;;;;;9.04;80.23;97796.22;5032913;28;8872;-61
2022/09/28 04:43:49;;;;;;;;;15.00;10.00;;;;;9.01;80.41;97792.06;5032990;28;8833;-63
2022/09/28 04:46:17;;;;;;;;;15.00;12.00;;;;;8.98;80.41;97799.53;5032716;28;8856;-61
2022/09/28 04:48:45;;;;;;;;;6.25;5.00;;;;;8.93;80.32;97797.38;5033758;28;8821;-62
2022/09/28 04:51:12;;;;;;;;;13.00;12.00;;;;;8.90;80.29;97797.69;5033733;28;9654;-62
2022/09/28 04:53:40;;;;;;;;;15.50;13.25;;;;;8.88;80.74;97789.06;5032808;28;8809;-62
2022/09/28 04:56:07;;;;;;;;;11.50;11.50;;;;;8.85;80.63;97794.69;5032653;28;8809;-61
2022/09/28 04:58:35;;;;;;;;;13.00;9.00;;;;;8.86;80.74;97800.81;5032610;28;8825;-62
2022/09/28 05:01:04;;;;;;;;;7.50;7.50;;;;;8.85;80.82;97799.16;5032659;28;8825;-60
2022/09/28 05:03:31;;;;;;;;;15.00;12.25;;;;;8.85;80.58;97801.81;5032539;28;8818;-62
2022/09/28 05:05:59;;;;;;;;;12.00;10.00;;;;;8.86;80.55;97806.13;5032644;28;8845;-62
2022/09/28 05:08:27;;;;;;;;;14.50;14.50;;;;;8.88;80.48;97802.31;5032301;28;8857;-60
2022/09/28 05:10:55;;;;;;;;;9.50;9.50;;;;;8.87;81.06;97808.63;5029861;28;8864;-60
2022/09/28 05:13:23;;;;;;;;;9.50;8.00;;;;;8.90;79.84;97799.53;5030632;28;8923;-61
2022/09/28 05:15:50;;;;;;;;;12.75;11.25;;;;;8.90;80.86;97805.63;5030841;28;8913;-60
2022/09/28 05:18:23;;;;;;;;;12.00;12.00;;;;;8.92;80.51;97805.47;5030819;28;8840;-60
2022/09/28 05:20:51;;;;;;;;;8.00;7.50;;;;;8.93;80.09;97809.78;5029141;28;8825;-60
2022/09/28 05:23:19;;;;;;;;;11.50;9.50;;;;;8.94;80.56;97809.63;5029769;28;8837;-63
2022/09/28 05:25:47;;;;;;;;;9.50;8.25;;;;;8.95;80.48;97813.94;5029726;28;8836;-61
2022/09/28 05:28:14;;;;;;;;;9.50;8.50;;;;;8.94;80.41;97817.59;5029041;28;9506;-60
2022/09/28 05:30:42;;;;;;;;;9.50;9.50;;;;;8.95;80.31;97810.47;5028366;28;8841;-61
2022/09/28 05:33:10;;;;;;;;;16.00;13.80;;;;;8.96;80.15;97809.47;5028571;28;9490;-61
2022/09/28 05:35:38;;;;;;;;;13.50;13.00;;;;;8.94;80.25;97803.47;5027255;28;8825;-62
2022/09/28 05:38:05;;;;;;;;;18.00;16.50;;;;;8.96;80.51;97804.19;5027473;28;8833;-62
2022/09/28 05:40:33;;;;;;;;;16.75;15.75;;;;;8.96;80.08;97806.84;5027615;28;8841;-61
2022/09/28 05:43:01;;;;;;;;;15.00;12.00;;;;;8.97;80.19;97809.31;5028055;28;8820;-63
2022/09/28 05:45:29;;;;;;;;;9.25;7.50;;;;;8.97;80.29;97809.31;5029346;28;8856;-60
2022/09/28 05:47:57;;;;;;;;;12.00;10.75;;;;;8.98;80.35;97812.78;5028696;28;8853;-61
2022/09/28 05:50:24;;;;;;;;;14.50;14.25;;;;;8.99;79.77;97807.34;5026997;28;8867;-62
2022/09/28 05:52:52;;;;;;;;;16.25;14.25;;;;;9.00;80.38;97809.00;5026621;28;8836;-61
2022/09/28 05:55:20;;;;;;;;;10.00;6.75;;;;;9.01;80.02;97807.16;5028157;28;8883;-62
2022/09/28 05:57:48;;;;;;;;;10.00;9.75;;;;;9.00;79.99;97806.34;5027358;28;9215;-62
2022/09/28 06:00:16;;;;;;;;;19.00;16.75;;;;;9.01;80.04;97810.66;5026909;28;8868;-61
2022/09/28 06:02:43;;;;;;;;;17.50;15.25;;;;;9.02;79.64;97807.00;5024857;28;8832;-61
2022/09/28 06:05:11;;;;;;;;;17.50;15.75;;;;;9.02;80.26;97807.00;5026084;28;9216;-60
2022/09/28 06:07:39;;;;;;;;;14.00;12.00;;;;;9.02;80.00;97808.81;5025829;28;8910;-61
2022/09/28 06:10:07;;;;;;;;;15.50;15.00;;;;;9.02;80.12;97811.47;5026031;28;8841;-60
2022/09/28 06:12:35;;;;;;;;;15.00;12.50;;;;;9.01;80.00;97805.34;5026047;28;8849;-60
2022/09/28 06:15:03;;;;;;;;;21.25;18.50;;;;;9.03;80.41;97815.78;5027340;28;8855;-62
2022/09/28 06:17:30;;;;;;;;;16.75;14.00;;;;;9.03;80.30;97813.16;5030706;28;8845;-61
2022/09/28 06:19:58;;;;;;;;;18.50;15.00;;;;;9.03;80.06;97808.66;5031578;28;8933;-62
2022/09/28 06:22:26;;;;;;;;;9.00;6.50;;;;;9.04;80.17;97820.91;5031818;28;8867;-61
2022/09/28 06:24:54;;;;;;;;;12.25;12.25;;;;;9.07;79.64;97819.75;5032787;28;8828;-61
2022/09/28 06:27:22;;;;;;;;;14.50;12.25;;;;;9.09;79.95;97823.91;5032690;28;8837;-63
2022/09/28 06:29:49;;;;;;;;;14.00;13.50;;;;;9.12;79.97;97828.06;5032101;28;8852;-61
2022/09/28 06:32:17;;;;;;;;;14.25;12.25;;;;;9.14;79.94;97829.56;5032081;28;8836;-61
2022/09/28 06:34:45;;;;;;;;;18.00;16.00;;;;;9.14;80.12;97832.22;5032734;28;9545;-61
2022/09/28 06:37:13;;;;;;;;;15.50;14.25;;;;;9.16;80.10;97834.69;5032964;28;8841;-61
2022/09/28 06:39:41;;;;;;;;;18.75;17.50;;;;;9.18;79.79;97841.50;5032479;28;8837;-62
2022/09/28 06:42:09;;;;;;;;;14.50;12.75;;;;;9.21;80.06;97841.19;5032644;28;8936;-63
2022/09/28 06:44:39;;;;;;;;;8.50;8.00;;;;;9.24;79.97;97858.59;5033924;28;8822;-63
2022/09/28 06:47:06;;;;;;;;;20.50;18.50;;;;;9.29;79.79;97848.31;5033350;28;8880;-61
2022/09/28 06:49:34;;;;;;;;;20.50;18.00;;;;;9.32;79.56;97856.78;5033368;28;8840;-60
2022/09/28 06:52:02;;;;;;;;;11.75;10.50;;;;;9.34;79.08;97848.66;5032353;28;8865;-62
2022/09/28 06:54:30;;;;;;;;;18.00;14.75;;;;;9.37;79.21;97857.13;5033071;28;8825;-63
2022/09/28 06:56:57;;;;;;;;;15.25;15.25;;;;;9.36;79.67;97855.47;5033098;28;8832;-62
2022/09/28 06:59:26;;;;;;;;;17.25;13.50;;;;;9.37;79.48;97850.97;5033284;28;8875;-61
2022/09/28 07:01:54;;;;;;;;;11.50;10.00;;;;;9.38;79.19;97853.47;5032884;28;9535;-61
2022/09/28 07:04:21;;;;;;;;;14.50;12.50;;;;;9.40;79.59;97851.47;5032602;28;8866;-62
2022/09/28 07:06:49;;;;;;;;;11.75;10.00;;;;;9.45;79.59;97851.81;5031945;28;8853;-61
2022/09/28 07:09:17;;;;;;;;;6.00;5.00;;;;;9.52;78.75;97857.28;5032014;28;8852;-61
2022/09/28 07:11:58;;;;;;;;;20.00;16.00;;;;;9.61;78.80;97859.78;5031920;28;8888;-60
2022/09/28 07:14:27;;;;;;;;;13.75;12.00;;;;;9.68;78.91;97860.78;5032116;28;8887;-62
2022/09/28 07:17:13;;;;;;;;;17.50;14.00;;;;;9.73;78.89;97862.94;5031944;28;8844;-60
2022/09/28 07:19:42;;;;;;;;;7.50;6.25;;;;;9.76;78.61;97863.44;5031173;28;8971;-60
2022/09/28 07:22:13;;;;;;;;;17.00;15.50;;;;;9.80;78.74;97870.06;5031281;28;8829;-62
2022/09/28 07:24:45;;;;;;;;;12.50;10.50;;;;;9.84;78.86;97870.53;5031105;28;8808;-61
2022/09/28 07:27:13;;;;;;;;;12.00;10.25;;;;;9.91;78.76;97872.38;5031385;28;8875;-61
2022/09/28 07:29:40;;;;;;;;;12.50;12.00;;;;;9.99;78.45;97877.69;5031939;28;8824;-63
2022/09/28 07:32:08;;;;;;;;;12.00;10.00;;;;;10.03;77.75;97879.03;5031912;28;8844;-60
2022/09/28 07:34:40;;;;;;;;;16.25;14.00;;;;;10.03;78.10;97871.03;5031816;28;8844;-63
2022/09/28 07:37:10;;;;;;;;;15.25;13.50;;;;;10.05;78.23;97878.84;5031698;28;8990;-61
2022/09/28 07:42:19;;;;;;;;;10.75;9.00;;;;;10.18;77.96;97877.31;5029700;28;8832;-60
2022/09/28 07:44:47;;;;;;;;;17.50;13.00;;;;;10.23;78.00;97880.31;5029531;28;8833;-61
2022/09/28 07:47:16;;;;;;;;;12.00;10.00;;;;;10.25;77.88;97891.59;5029212;28;8944;-63
2022/09/28 07:49:44;;;;;;;;;14.50;12.50;;;;;10.23;77.88;97888.28;5030050;28;8833;-63
2022/09/28 07:52:12;;;;;;;;;16.00;14.25;;;;;10.19;77.95;97892.31;5027585;28;8856;-62
2022/09/28 07:54:39;;;;;;;;;15.00;11.00;;;;;10.15;77.96;97893.63;5027728;28;8875;-62
2022/09/28 07:57:08;;;;;;;;;15.50;12.75;;;;;10.14;78.12;97899.13;5028347;28;8828;-62
2022/09/28 07:59:35;;;;;;;;;12.25;10.50;;;;;10.13;78.10;97900.13;5027788;28;8850;-60
2022/09/28 08:02:03;;;;;;;;;11.50;10.00;;;;;10.10;78.17;97897.81;5028395;28;8848;-61
2022/09/28 08:04:31;;;;;;;;;19.25;16.00;;;;;10.10;78.63;97901.28;5028663;28;8887;-61
2022/09/28 08:06:59;;;;;;;;;20.50;15.25;;;;;10.09;78.25;97907.59;5028261;28;8845;-63
2022/09/28 08:09:27;;;;;;;;;19.75;17.25;;;;;10.06;77.78;97905.28;5028069;28;8852;-61
2022/09/28 08:11:54;;;;;;;;;18.00;16.25;;;;;10.01;78.36;97910.25;5028401;28;8865;-61
2022/09/28 08:14:23;;;;;;;;;19.50;17.00;;;;;9.93;78.62;97915.56;5028805;28;8828;-61
2022/09/28 08:16:51;;;;;;;;;18.00;15.25;;;;;9.85;79.03;97915.56;5029335;28;9522;-61
2022/09/28 08:19:19;;;;;;;;;22.25;16.75;;;;;9.78;79.02;97919.09;5027732;28;8873;-61
2022/09/28 08:21:46;;;;;;;;;19.00;16.75;;;;;9.71;79.24;97918.91;5027160;28;9536;-62
2022/09/28 08:24:14;;;;;;;;;8.00;6.75;;;;;9.66;79.28;97918.56;5027705;28;8837;-63
2022/09/28 08:26:43;;;;;;;;;14.00;11.00;;;;;9.64;79.57;97925.88;5029125;28;9508;-62
2022/09/28 08:29:10;;;;;;;;;15.75;14.25;;;;;9.64;79.63;97927.72;5028543;28;8837;-61
2022/09/28 08:31:38;;;;;;;;;13.00;11.00;;;;;9.63;79.52;97928.72;5028549;28;8840;-60
2022/09/28 08:34:06;;;;;;;;;15.50;14.00;;;;;9.63;79.53;97926.06;5029485;28;8934;-62
2022/09/28 08:36:34;;;;;;;;;15.25;13.50;;;;;9.66;79.62;97931.03;5029091;28;8904;-61
2022/09/28 08:39:02;;;;;;;;;9.50;8.00;;;;;9.69;79.58;97930.69;5027998;28;8943;-63
2022/09/28 08:41:30;;;;;;;;;20.25;17.75;;;;;9.71;79.42;97934.03;5028002;28;8891;-63
2022/09/28 08:43:58;;;;;;;;;19.00;15.25;;;;;9.69;79.33;97939.50;5028200;28;8839;-62
2022/09/28 08:46:25;;;;;;;;;13.75;12.50;;;;;9.71;79.27;97939.34;5028366;28;8871;-60
2022/09/28 08:48:54;;;;;;;;;16.00;15.25;;;;;9.70;79.51;97949.13;5028919;28;8837;-62
2022/09/28 08:51:42;;;;;;;;;12.25;12.00;;;;;9.72;79.17;97947.13;5029045;28;9205;-62
2022/09/28 08:54:09;;;;;;;;;15.50;13.75;;;;;9.73;79.41;97954.09;5029100;28;9558;-62
2022/09/28 08:56:38;;;;;;;;;21.50;18.50;;;;;9.77;79.21;97949.28;5028224;28;8848;-63
2022/09/28 08:59:06;;;;;;;;;20.00;18.25;;;;;9.82;79.68;97952.28;5029384;28;9621;-61
2022/09/28 09:01:34;;;;;;;;;19.50;17.75;;;;;9.86;79.30;97951.78;5029072;28;8917;-61
2022/09/28 09:04:03;;;;;;;;;15.50;15.25;;;;;9.89;79.21;97955.94;5029247;28;8829;-62
2022/09/28 09:06:31;;;;;;;;;16.50;15.00;;;;;9.91;78.58;97961.91;5028510;28;8870;-61
2022/09/28 09:08:58;;;;;;;;;10.50;9.25;;;;;9.92;79.07;97958.25;5027654;28;9216;-61
2022/09/28 09:11:27;;;;;;;;;10.00;10.00;;;;;9.95;78.83;97956.09;5027174;28;8849;-60
2022/09/28 09:13:56;;;;;;;;;17.50;14.50;;;;;10.02;78.92;97974.91;5027332;28;8828;-60
2022/09/28 09:16:24;;;;;;;;;17.00;16.25;;;;;10.10;79.12;97970.41;5025515;28;8837;-62
2022/09/28 09:18:51;;;;;;;;;20.00;18.75;;;;;10.22;78.35;97969.09;5027504;28;8852;-61
2022/09/28 09:21:20;;;;;;;;;13.75;12.00;;;;;10.30;77.98;97969.06;5028011;28;8872;-62
2022/09/28 09:23:48;;;;;;;;;22.00;18.00;;;;;10.38;78.14;97970.88;5028581;28;8972;-61
2022/09/28 09:26:16;;;;;;;;;20.00;19.25;;;;;10.47;77.90;97975.22;5028021;28;8833;-61
2022/09/28 09:28:50;;;;;;;;;20.50;16.75;;;;;10.57;77.63;97976.69;5029141;28;8857;-63
2022/09/28 09:31:18;;;;;;;;;19.00;17.00;;;;;10.69;77.45;97979.81;5029830;28;8951;-61
2022/09/28 09:33:50;;;;;;;;;18.00;17.25;;;;;10.74;77.34;97978.28;5029275;28;8849;-61
2022/09/28 09:36:19;;;;;;;;;15.50;15.25;;;;;10.79;77.22;97983.09;5028453;28;8833;-63
2022/09/28 09:38:46;;;;;;;;;9.75;8.25;;;;;10.90;77.21;97983.56;5028648;28;8825;-61
2022/09/28 09:41:14;;;;;;;;;14.25;9.75;;;;;11.02;77.06;97979.53;5028992;28;8852;-61
2022/09/28 09:43:42;;;;;;;;;16.25;14.00;;;;;11.13;76.46;97981.81;5028932;28;8905;-62
2022/09/28 09:46:10;;;;;;;;;11.50;10.50;;;;;11.15;76.45;97986.97;5027228;28;8965;-61
2022/09/28 09:48:38;;;;;;;;;15.50;13.50;;;;;11.17;76.81;97995.59;5028186;28;8837;-61
2022/09/28 09:51:06;;;;;;;;;14.50;12.75;;;;;11.20;76.82;97988.09;5031385;28;8851;-61
2022/09/28 09:53:34;;;;;;;;;14.00;12.50;;;;;11.23;76.79;97985.06;5033942;28;8878;-61
2022/09/28 09:56:05;;;;;;;;;13.25;13.25;;;;;11.26;76.58;97997.22;5032211;28;8876;-61
2022/09/28 09:58:33;;;;;;;;;13.50;13.50;;;;;11.29;76.47;97997.69;5031396;28;8852;-61
2022/09/28 10:01:02;;;;;;;;;17.50;16.25;;;;;11.38;76.98;97996.66;5031045;28;8841;-61
2022/09/28 10:03:30;;;;;;;;;14.50;14.00;;;;;11.50;76.37;97994.41;5029876;28;9074;-60
2022/09/28 10:05:57;;;;;;;;;20.50;19.00;;;;;11.56;76.43;97991.91;5029409;28;8836;-61
2022/09/28 10:08:26;;;;;;;;;14.50;14.50;;;;;11.56;76.61;97986.56;5028690;28;8848;-62
2022/09/28 10:10:54;;;;;;;;;19.25;18.00;;;;;11.59;76.10;97991.56;5026382;28;8849;-61
2022/09/28 10:13:22;;;;;;;;;11.50;9.75;;;;;11.66;75.99;97984.53;5027719;28;8930;-63
2022/09/28 10:15:50;;;;;;;;;12.75;12.25;;;;;11.68;76.44;97985.19;5027460;28;8887;-61
2022/09/28 10:18:18;;;;;;;;;19.50;15.00;;;;;11.74;76.14;97987.13;5027717;28;8999;-61
2022/09/28 10:20:46;;;;;;;;;13.75;12.25;;;;;11.79;76.18;97990.13;5026786;28;8852;-61
2022/09/28 10:23:14;;;;;;;;;15.75;13.00;;;;;11.78;75.81;97993.78;5027626;28;8829;-60
2022/09/28 10:25:42;;;;;;;;;19.50;18.00;;;;;11.72;76.10;97991.81;5027028;28;9004;-61
2022/09/28 10:28:09;;;;;;;;;15.00;12.25;;;;;11.67;76.70;98002.19;5028140;28;8832;-61
2022/09/28 10:30:43;;;;;;;;;20.25;17.00;;;;;11.64;76.50;97996.38;5027696;28;8959;-61
2022/09/28 10:33:11;;;;;;;;;9.75;7.00;;;;;11.60;76.89;98003.88;5027546;28;9537;-61
2022/09/28 10:35:39;;;;;;;;;17.50;14.50;;;;;11.52;76.64;98005.75;5027696;28;9198;-61
2022/09/28 10:38:07;;;;;;;;;19.00;18.50;;;;;11.39;76.63;98008.97;5029068;28;9230;-61
2022/09/28 10:40:35;;;;;;;;;10.00;10.00;;;;;11.26;77.33;98007.88;5028909;28;8845;-62
2022/09/28 10:43:03;;;;;;;;;12.00;10.50;;;;;11.13;77.41;98016.44;5029347;28;8840;-61
2022/09/28 10:45:31;;;;;;;;;7.25;5.25;;;;;11.04;78.02;98019.28;5032775;28;8897;-61
2022/09/28 10:48:00;;;;;;;;;18.25;15.00;;;;;10.91;78.05;98027.81;5036101;28;8824;-61
2022/09/28 10:50:28;;;;;;;;;13.00;12.00;;;;;10.80;78.30;98028.19;5033134;28;8837;-62
2022/09/28 10:52:57;;;;;;;;;16.50;14.50;;;;;10.70;78.83;98032.84;5028154;28;8836;-60
2022/09/28 10:55:24;;;;;;;;;18.50;18.50;;;;;10.63;78.84;98023.88;5028341;28;8864;-61
2022/09/28 10:57:53;;;;;;;;;14.50;10.00;;;;;10.63;79.10;98026.56;5027538;28;8836;-61
2022/09/28 11:00:21;;;;;;;;;12.00;11.75;;;;;10.72;78.72;98038.03;5028244;28;8840;-62
2022/09/28 11:02:49;;;;;;;;;13.50;12.25;;;;;10.90;78.02;98036.81;5028130;28;8836;-61
2022/09/28 11:05:17;;;;;;;;;14.50;13.00;;;;;11.05;77.70;98035.09;5029238;28;8832;-61
2022/09/28 11:07:45;;;;;;;;;12.75;12.25;;;;;11.17;77.69;98024.91;5028159;28;9506;-61
2022/09/28 11:10:12;;;;;;;;;9.25;9.25;;;;;11.30;77.39;98033.19;5025977;28;8911;-61
2022/09/28 11:12:41;;;;;;;;;14.00;12.00;;;;;11.39;77.25;98032.94;5025652;28;9603;-61
2022/09/28 11:15:09;;;;;;;;;13.00;13.00;;;;;11.43;77.07;98028.94;5027967;28;8849;-61
2022/09/28 11:17:37;;;;;;;;;12.50;12.00;;;;;11.50;76.51;98029.91;5028751;28;8848;-60
2022/09/28 11:20:05;;;;;;;;;10.50;8.00;;;;;11.53;77.02;98034.06;5027578;28;9300;-61
2022/09/28 11:22:33;;;;;;;;;11.00;10.75;;;;;11.61;76.30;98034.88;5028651;28;8836;-61
2022/09/28 11:25:01;;;;;;;;;5.00;3.50;;;;;11.73;76.19;98030.81;5027752;28;8878;-61
2022/09/28 11:27:29;;;;;;;;;12.50;11.00;;;;;11.81;76.29;98030.75;5028847;28;8844;-61
2022/09/28 11:29:57;;;;;;;;;9.00;9.00;;;;;11.86;75.76;98025.75;5027946;28;8837;-60
2022/09/28 11:32:25;;;;;;;;;8.00;6.75;;;;;11.85;76.18;98032.09;5029114;28;8841;-61
2022/09/28 11:34:53;;;;;;;;;10.50;10.00;;;;;11.85;76.11;98029.41;5027930;28;8859;-62
2022/09/28 11:37:29;;;;;;;;;13.00;12.75;;;;;11.85;75.84;98024.09;5028010;28;8848;-61
2022/09/28 11:39:58;;;;;;;;;9.75;9.00;;;;;11.89;76.29;98022.69;5027712;28;8856;-61
2022/09/28 11:42:25;;;;;;;;;12.00;10.00;;;;;11.93;75.62;98026.69;5030593;28;8889;-62
2022/09/28 11:44:53;;;;;;;;;9.50;8.75;;;;;11.98;75.58;98030.47;5028344;28;8898;-61
2022/09/28 11:47:21;;;;;;;;;10.25;9.25;;;;;12.08;75.74;98033.72;5028106;28;8844;-61
2022/09/28 11:49:49;;;;;;;;;10.75;10.50;;;;;12.17;75.40;98031.84;5026827;28;8824;-60